sensor_id;sensor_type;location;lat;lon;timestamp;pressure;altitude;pressure_sealevel;temperature;humidity
67987;BME280;54767;53.800;15.956;2023-08-06T00:02:21;99668.52;;;16.99;76.95
67987;BME280;54767;53.800;15.956;2023-08-06T00:04:49;99664.92;;;17.01;76.89
67987;BME280;54767;53.800;15.956;2023-08-06T00:07:17;99663.16;;;17.01;77.03
67987;BME280;54767;53.800;15.956;2023-08-06T00:09:46;99659.58;;;17.02;77.12
67987;BME280;54767;53.800;15.956;2023-08-06T00:12:14;99655.38;;;17.01;77.04
67987;BME280;54767;53.800;15.956;2023-08-06T00:14:43;99664.06;;;17.00;77.18
67987;BME280;54767;53.800;15.956;2023-08-06T00:17:11;99665.30;;;17.00;77.28
67987;BME280;54767;53.800;15.956;2023-08-06T00:19:40;99656.49;;;16.99;77.26
67987;BME280;54767;53.800;15.956;2023-08-06T00:22:08;99652.30;;;16.98;77.31
67987;BME280;54767;53.800;15.956;2023-08-06T00:24:37;99654.77;;;16.98;77.45
67987;BME280;54767;53.800;15.956;2023-08-06T00:27:05;99654.44;;;16.97;77.50
67987;BME280;54767;53.800;15.956;2023-08-06T00:29:34;99648.98;;;17.02;77.61
67987;BME280;54767;53.800;15.956;2023-08-06T00:32:02;99647.44;;;17.06;77.60
67987;BME280;54767;53.800;15.956;2023-08-06T00:34:31;99652.40;;;17.05;77.40
67987;BME280;54767;53.800;15.956;2023-08-06T00:36:59;99651.46;;;17.02;77.38
67987;BME280;54767;53.800;15.956;2023-08-06T00:39:27;99648.67;;;16.95;77.39
67987;BME280;54767;53.800;15.956;2023-08-06T00:41:56;99644.85;;;16.88;77.47
67987;BME280;54767;53.800;15.956;2023-08-06T00:44:24;99643.14;;;16.86;77.81
67987;BME280;54767;53.800;15.956;2023-08-06T00:46:52;99646.20;;;16.85;77.75
67987;BME280;54767;53.800;15.956;2023-08-06T00:49:21;99640.99;;;16.76;77.70
67987;BME280;54767;53.800;15.956;2023-08-06T00:51:49;99629.21;;;16.68;77.87
67987;BME280;54767;53.800;15.956;2023-08-06T00:54:18;99626.52;;;16.64;78.02
67987;BME280;54767;53.800;15.956;2023-08-06T00:56:47;99631.95;;;16.60;78.04
67987;BME280;54767;53.800;15.956;2023-08-06T00:59:15;99622.89;;;16.56;78.09
67987;BME280;54767;53.800;15.956;2023-08-06T01:01:44;99615.74;;;16.53;78.26
67987;BME280;54767;53.800;15.956;2023-08-06T01:04:13;99608.94;;;16.50;78.41
67987;BME280;54767;53.800;15.956;2023-08-06T01:06:48;99607.05;;;16.49;78.57
67987;BME280;54767;53.800;15.956;2023-08-06T01:12:25;99603.32;;;16.55;78.62
67987;BME280;54767;53.800;15.956;2023-08-06T01:15:07;99607.98;;;16.58;78.72
67987;BME280;54767;53.800;15.956;2023-08-06T01:17:37;99614.23;;;16.61;78.56
67987;BME280;54767;53.800;15.956;2023-08-06T01:20:06;99619.13;;;16.63;78.55
67987;BME280;54767;53.800;15.956;2023-08-06T01:22:35;99619.73;;;16.66;78.48
67987;BME280;54767;53.800;15.956;2023-08-06T01:25:04;99615.13;;;16.67;78.29
67987;BME280;54767;53.800;15.956;2023-08-06T01:27:47;99610.75;;;16.65;78.34
67987;BME280;54767;53.800;15.956;2023-08-06T01:30:29;99610.80;;;16.69;78.48
67987;BME280;54767;53.800;15.956;2023-08-06T01:33:21;99603.55;;;16.75;78.29
67987;BME280;54767;53.800;15.956;2023-08-06T01:35:51;99593.95;;;16.77;78.27
67987;BME280;54767;53.800;15.956;2023-08-06T01:38:21;99579.85;;;16.82;78.16
67987;BME280;54767;53.800;15.956;2023-08-06T01:40:49;99575.48;;;16.81;77.94
67987;BME280;54767;53.800;15.956;2023-08-06T01:43:18;99573.84;;;16.82;78.06
67987;BME280;54767;53.800;15.956;2023-08-06T01:45:46;99572.70;;;16.84;78.06
67987;BME280;54767;53.800;15.956;2023-08-06T01:48:15;99565.48;;;16.83;78.01
67987;BME280;54767;53.800;15.956;2023-08-06T01:50:43;99563.23;;;16.82;77.95
67987;BME280;54767;53.800;15.956;2023-08-06T01:53:12;99559.27;;;16.79;78.00
67987;BME280;54767;53.800;15.956;2023-08-06T01:55:40;99554.41;;;16.76;77.88
67987;BME280;54767;53.800;15.956;2023-08-06T01:58:09;99545.91;;;16.70;77.83
67987;BME280;54767;53.800;15.956;2023-08-06T02:00:37;99540.31;;;16.64;77.83
67987;BME280;54767;53.800;15.956;2023-08-06T02:03:05;99537.38;;;16.57;77.90
67987;BME280;54767;53.800;15.956;2023-08-06T02:05:34;99526.09;;;16.51;78.13
67987;BME280;54767;53.800;15.956;2023-08-06T02:08:02;99519.80;;;16.48;78.35
67987;BME280;54767;53.800;15.956;2023-08-06T02:10:34;99514.72;;;16.47;78.36
67987;BME280;54767;53.800;15.956;2023-08-06T02:13:02;99518.80;;;16.47;78.43
67987;BME280;54767;53.800;15.956;2023-08-06T02:15:31;99515.64;;;16.41;78.27
67987;BME280;54767;53.800;15.956;2023-08-06T02:17:59;99517.17;;;16.37;78.41
67987;BME280;54767;53.800;15.956;2023-08-06T02:20:27;99507.64;;;16.37;78.54
67987;BME280;54767;53.800;15.956;2023-08-06T02:22:56;99507.70;;;16.41;78.57
67987;BME280;54767;53.800;15.956;2023-08-06T02:25:24;99501.14;;;16.42;78.50
67987;BME280;54767;53.800;15.956;2023-08-06T02:27:53;99498.00;;;16.45;78.53
67987;BME280;54767;53.800;15.956;2023-08-06T02:30:21;99497.04;;;16.48;78.46
67987;BME280;54767;53.800;15.956;2023-08-06T02:32:49;99499.57;;;16.52;78.45
67987;BME280;54767;53.800;15.956;2023-08-06T02:35:17;99502.23;;;16.56;78.35
67987;BME280;54767;53.800;15.956;2023-08-06T02:37:46;99498.23;;;16.54;78.01
67987;BME280;54767;53.800;15.956;2023-08-06T02:40:14;99495.18;;;16.51;78.22
67987;BME280;54767;53.800;15.956;2023-08-06T02:42:43;99491.09;;;16.51;78.29
67987;BME280;54767;53.800;15.956;2023-08-06T02:45:13;99491.81;;;16.51;78.17
67987;BME280;54767;53.800;15.956;2023-08-06T02:47:41;99491.91;;;16.53;78.27
67987;BME280;54767;53.800;15.956;2023-08-06T02:50:09;99486.70;;;16.56;78.14
67987;BME280;54767;53.800;15.956;2023-08-06T02:52:38;99483.45;;;16.58;78.10
67987;BME280;54767;53.800;15.956;2023-08-06T02:55:08;99480.63;;;16.58;77.94
67987;BME280;54767;53.800;15.956;2023-08-06T02:57:36;99479.27;;;16.56;77.82
67987;BME280;54767;53.800;15.956;2023-08-06T03:00:08;99474.40;;;16.54;77.75
67987;BME280;54767;53.800;15.956;2023-08-06T03:02:37;99467.79;;;16.51;77.69
67987;BME280;54767;53.800;15.956;2023-08-06T03:05:05;99466.59;;;16.45;77.71
67987;BME280;54767;53.800;15.956;2023-08-06T03:07:34;99459.79;;;16.37;77.64
67987;BME280;54767;53.800;15.956;2023-08-06T03:10:04;99454.46;;;16.27;77.66
67987;BME280;54767;53.800;15.956;2023-08-06T03:12:32;99439.86;;;16.15;77.88
67987;BME280;54767;53.800;15.956;2023-08-06T03:15:00;99426.89;;;16.08;77.95
67987;BME280;54767;53.800;15.956;2023-08-06T03:17:29;99414.49;;;15.98;78.16
67987;BME280;54767;53.800;15.956;2023-08-06T03:19:57;99409.87;;;15.89;78.34
67987;BME280;54767;53.800;15.956;2023-08-06T03:22:25;99405.73;;;15.80;78.53
67987;BME280;54767;53.800;15.956;2023-08-06T03:24:54;99406.39;;;15.76;78.73
67987;BME280;54767;53.800;15.956;2023-08-06T03:27:22;99403.98;;;15.74;78.94
67987;BME280;54767;53.800;15.956;2023-08-06T03:29:51;99398.11;;;15.71;79.08
67987;BME280;54767;53.800;15.956;2023-08-06T03:32:19;99390.80;;;15.68;79.23
67987;BME280;54767;53.800;15.956;2023-08-06T03:34:48;99384.70;;;15.64;79.38
67987;BME280;54767;53.800;15.956;2023-08-06T03:37:17;99384.05;;;15.63;79.51
67987;BME280;54767;53.800;15.956;2023-08-06T03:39:46;99380.79;;;15.60;79.73
67987;BME280;54767;53.800;15.956;2023-08-06T03:42:14;99381.81;;;15.55;79.84
67987;BME280;54767;53.800;15.956;2023-08-06T03:44:43;99380.37;;;15.51;79.96
67987;BME280;54767;53.800;15.956;2023-08-06T03:47:11;99376.27;;;15.47;80.21
67987;BME280;54767;53.800;15.956;2023-08-06T03:49:39;99379.02;;;15.44;80.39
67987;BME280;54767;53.800;15.956;2023-08-06T03:52:08;99373.15;;;15.39;80.51
67987;BME280;54767;53.800;15.956;2023-08-06T03:54:36;99368.08;;;15.38;80.66
67987;BME280;54767;53.800;15.956;2023-08-06T03:57:05;99362.48;;;15.36;80.78
67987;BME280;54767;53.800;15.956;2023-08-06T03:59:33;99354.06;;;15.35;80.79
67987;BME280;54767;53.800;15.956;2023-08-06T04:02:02;99349.30;;;15.35;80.94
67987;BME280;54767;53.800;15.956;2023-08-06T04:04:30;99351.28;;;15.34;80.87
67987;BME280;54767;53.800;15.956;2023-08-06T04:06:58;99348.42;;;15.35;80.97
67987;BME280;54767;53.800;15.956;2023-08-06T04:09:28;99342.81;;;15.34;81.05
67987;BME280;54767;53.800;15.956;2023-08-06T04:11:57;99335.60;;;15.34;81.08
67987;BME280;54767;53.800;15.956;2023-08-06T04:14:27;99338.30;;;15.32;81.14
67987;BME280;54767;53.800;15.956;2023-08-06T04:16:56;99331.52;;;15.30;81.01
67987;BME280;54767;53.800;15.956;2023-08-06T04:19:24;99330.51;;;15.28;81.10
67987;BME280;54767;53.800;15.956;2023-08-06T04:21:52;99329.87;;;15.26;81.26
67987;BME280;54767;53.800;15.956;2023-08-06T04:24:21;99326.93;;;15.24;81.26
67987;BME280;54767;53.800;15.956;2023-08-06T04:26:49;99325.00;;;15.23;81.27
67987;BME280;54767;53.800;15.956;2023-08-06T04:29:18;99325.35;;;15.24;81.35
67987;BME280;54767;53.800;15.956;2023-08-06T04:31:46;99323.48;;;15.21;81.45
67987;BME280;54767;53.800;15.956;2023-08-06T04:34:14;99318.27;;;15.18;81.46
67987;BME280;54767;53.800;15.956;2023-08-06T04:36:43;99308.75;;;15.19;81.57
67987;BME280;54767;53.800;15.956;2023-08-06T04:39:11;99299.45;;;15.18;81.55
67987;BME280;54767;53.800;15.956;2023-08-06T04:41:39;99290.95;;;15.19;81.77
67987;BME280;54767;53.800;15.956;2023-08-06T04:44:07;99286.71;;;15.19;81.71
67987;BME280;54767;53.800;15.956;2023-08-06T04:46:36;99283.93;;;15.18;81.89
67987;BME280;54767;53.800;15.956;2023-08-06T04:49:04;99280.48;;;15.15;81.97
67987;BME280;54767;53.800;15.956;2023-08-06T04:51:32;99276.13;;;15.13;82.02
67987;BME280;54767;53.800;15.956;2023-08-06T04:54:01;99272.10;;;15.13;82.12
67987;BME280;54767;53.800;15.956;2023-08-06T04:56:29;99268.66;;;15.10;82.42
67987;BME280;54767;53.800;15.956;2023-08-06T04:58:58;99262.25;;;15.07;82.47
67987;BME280;54767;53.800;15.956;2023-08-06T05:01:27;99250.67;;;15.05;82.52
67987;BME280;54767;53.800;15.956;2023-08-06T05:03:56;99244.68;;;15.05;82.53
67987;BME280;54767;53.800;15.956;2023-08-06T05:06:24;99241.39;;;15.04;82.81
67987;BME280;54767;53.800;15.956;2023-08-06T05:08:53;99244.77;;;15.03;82.69
67987;BME280;54767;53.800;15.956;2023-08-06T05:11:21;99240.02;;;15.02;82.72
67987;BME280;54767;53.800;15.956;2023-08-06T05:13:50;99239.71;;;15.01;82.60
67987;BME280;54767;53.800;15.956;2023-08-06T05:16:18;99233.20;;;15.01;82.90
67987;BME280;54767;53.800;15.956;2023-08-06T05:18:46;99229.52;;;15.00;82.97
67987;BME280;54767;53.800;15.956;2023-08-06T05:21:15;99227.11;;;14.98;82.93
67987;BME280;54767;53.800;15.956;2023-08-06T05:23:44;99222.94;;;14.96;83.15
67987;BME280;54767;53.800;15.956;2023-08-06T05:26:12;99217.85;;;14.96;83.26
67987;BME280;54767;53.800;15.956;2023-08-06T05:28:42;99203.43;;;14.95;83.41
67987;BME280;54767;53.800;15.956;2023-08-06T05:31:10;99198.50;;;14.95;83.65
67987;BME280;54767;53.800;15.956;2023-08-06T05:33:39;99187.31;;;14.92;83.80
67987;BME280;54767;53.800;15.956;2023-08-06T05:36:07;99170.45;;;14.90;83.87
67987;BME280;54767;53.800;15.956;2023-08-06T05:38:35;99162.68;;;14.91;84.08
67987;BME280;54767;53.800;15.956;2023-08-06T05:41:04;99159.88;;;14.90;84.23
67987;BME280;54767;53.800;15.956;2023-08-06T05:43:32;99158.33;;;14.90;84.14
67987;BME280;54767;53.800;15.956;2023-08-06T05:46:00;99160.58;;;14.91;84.07
67987;BME280;54767;53.800;15.956;2023-08-06T05:48:28;99165.98;;;14.93;84.14
67987;BME280;54767;53.800;15.956;2023-08-06T05:50:57;99169.93;;;14.96;84.10
67987;BME280;54767;53.800;15.956;2023-08-06T05:53:26;99171.94;;;14.99;84.00
67987;BME280;54767;53.800;15.956;2023-08-06T05:55:55;99170.95;;;15.02;84.00
67987;BME280;54767;53.800;15.956;2023-08-06T05:58:24;99177.50;;;15.07;84.03
67987;BME280;54767;53.800;15.956;2023-08-06T06:00:54;99179.48;;;15.10;83.94
67987;BME280;54767;53.800;15.956;2023-08-06T06:03:22;99187.91;;;15.17;84.01
67987;BME280;54767;53.800;15.956;2023-08-06T06:05:51;99190.84;;;15.24;83.91
67987;BME280;54767;53.800;15.956;2023-08-06T06:08:19;99183.91;;;15.31;83.78
67987;BME280;54767;53.800;15.956;2023-08-06T06:10:47;99169.86;;;15.34;83.66
67987;BME280;54767;53.800;15.956;2023-08-06T06:13:16;99159.38;;;15.36;83.60
67987;BME280;54767;53.800;15.956;2023-08-06T06:15:46;99167.17;;;15.41;83.63
67987;BME280;54767;53.800;15.956;2023-08-06T06:18:15;99181.19;;;15.44;83.41
67987;BME280;54767;53.800;15.956;2023-08-06T06:20:43;99193.92;;;15.47;83.54
67987;BME280;54767;53.800;15.956;2023-08-06T06:23:11;99196.38;;;15.52;83.60
67987;BME280;54767;53.800;15.956;2023-08-06T06:25:49;99187.11;;;15.60;83.48
67987;BME280;54767;53.800;15.956;2023-08-06T06:28:21;99163.23;;;15.63;83.28
67987;BME280;54767;53.800;15.956;2023-08-06T06:30:51;99131.21;;;15.60;83.10
67987;BME280;54767;53.800;15.956;2023-08-06T06:33:19;99100.88;;;15.51;83.21
67987;BME280;54767;53.800;15.956;2023-08-06T06:35:48;99081.64;;;15.41;83.43
67987;BME280;54767;53.800;15.956;2023-08-06T06:38:17;99070.61;;;15.34;83.82
67987;BME280;54767;53.800;15.956;2023-08-06T06:40:54;99075.61;;;15.28;84.24
67987;BME280;54767;53.800;15.956;2023-08-06T06:43:23;99080.38;;;15.23;84.19
67987;BME280;54767;53.800;15.956;2023-08-06T06:45:59;99083.09;;;15.21;84.29
67987;BME280;54767;53.800;15.956;2023-08-06T06:48:29;99093.67;;;15.25;84.36
67987;BME280;54767;53.800;15.956;2023-08-06T06:50:58;99106.40;;;15.29;84.28
67987;BME280;54767;53.800;15.956;2023-08-06T06:53:27;99114.91;;;15.33;84.17
67987;BME280;54767;53.800;15.956;2023-08-06T06:56:00;99118.95;;;15.38;84.00
67987;BME280;54767;53.800;15.956;2023-08-06T06:58:29;99106.91;;;15.39;83.95
67987;BME280;54767;53.800;15.956;2023-08-06T07:00:57;99094.79;;;15.39;84.07
67987;BME280;54767;53.800;15.956;2023-08-06T07:03:26;99078.67;;;15.36;84.31
67987;BME280;54767;53.800;15.956;2023-08-06T07:05:58;99066.52;;;15.30;84.49
67987;BME280;54767;53.800;15.956;2023-08-06T07:08:27;99049.30;;;15.24;85.01
67987;BME280;54767;53.800;15.956;2023-08-06T07:11:01;99037.18;;;15.18;84.99
67987;BME280;54767;53.800;15.956;2023-08-06T07:13:30;99031.65;;;15.15;85.18
67987;BME280;54767;53.800;15.956;2023-08-06T07:15:58;99032.23;;;15.13;85.39
67987;BME280;54767;53.800;15.956;2023-08-06T07:18:27;99040.96;;;15.11;85.66
67987;BME280;54767;53.800;15.956;2023-08-06T07:20:56;99038.94;;;15.08;86.08
67987;BME280;54767;53.800;15.956;2023-08-06T07:23:25;99036.20;;;15.06;86.18
67987;BME280;54767;53.800;15.956;2023-08-06T07:25:54;99032.96;;;15.03;86.35
67987;BME280;54767;53.800;15.956;2023-08-06T07:28:22;99030.69;;;15.02;86.18
67987;BME280;54767;53.800;15.956;2023-08-06T07:30:53;99041.75;;;15.04;86.38
67987;BME280;54767;53.800;15.956;2023-08-06T07:33:22;99062.35;;;15.04;86.33
67987;BME280;54767;53.800;15.956;2023-08-06T07:35:53;99087.52;;;15.05;86.24
67987;BME280;54767;53.800;15.956;2023-08-06T07:38:22;99083.35;;;15.08;86.20
67987;BME280;54767;53.800;15.956;2023-08-06T07:40:53;99076.84;;;15.13;86.24
67987;BME280;54767;53.800;15.956;2023-08-06T07:43:21;99078.62;;;15.17;86.20
67987;BME280;54767;53.800;15.956;2023-08-06T07:45:50;99091.69;;;15.22;86.03
67987;BME280;54767;53.800;15.956;2023-08-06T07:48:18;99107.97;;;15.25;86.03
67987;BME280;54767;53.800;15.956;2023-08-06T07:50:51;99114.54;;;15.28;85.90
67987;BME280;54767;53.800;15.956;2023-08-06T07:53:22;99102.40;;;15.33;85.80
67987;BME280;54767;53.800;15.956;2023-08-06T07:55:51;99065.10;;;15.35;85.76
67987;BME280;54767;53.800;15.956;2023-08-06T07:58:20;99019.94;;;15.27;86.41
67987;BME280;54767;53.800;15.956;2023-08-06T08:00:49;98980.38;;;15.15;86.71
67987;BME280;54767;53.800;15.956;2023-08-06T08:03:17;98949.40;;;15.04;87.19
67987;BME280;54767;53.800;15.956;2023-08-06T08:05:46;98954.63;;;14.96;87.46
67987;BME280;54767;53.800;15.956;2023-08-06T08:08:14;98969.41;;;14.91;87.51
67987;BME280;54767;53.800;15.956;2023-08-06T08:10:43;98986.23;;;14.89;87.64
67987;BME280;54767;53.800;15.956;2023-08-06T08:13:11;98995.59;;;14.88;87.60
67987;BME280;54767;53.800;15.956;2023-08-06T08:15:40;99000.55;;;14.88;87.85
67987;BME280;54767;53.800;15.956;2023-08-06T08:18:08;99007.29;;;14.87;87.91
67987;BME280;54767;53.800;15.956;2023-08-06T08:20:37;99007.13;;;14.86;87.89
67987;BME280;54767;53.800;15.956;2023-08-06T08:23:05;98993.80;;;14.84;87.83
67987;BME280;54767;53.800;15.956;2023-08-06T08:25:34;99001.02;;;14.85;87.81
67987;BME280;54767;53.800;15.956;2023-08-06T08:28:02;99012.45;;;14.85;87.65
67987;BME280;54767;53.800;15.956;2023-08-06T08:30:31;99013.62;;;14.87;87.58
67987;BME280;54767;53.800;15.956;2023-08-06T08:33:00;98990.02;;;14.87;87.66
67987;BME280;54767;53.800;15.956;2023-08-06T08:35:29;98966.69;;;14.84;87.96
67987;BME280;54767;53.800;15.956;2023-08-06T08:37:57;98945.30;;;14.81;88.11
67987;BME280;54767;53.800;15.956;2023-08-06T08:40:33;98935.92;;;14.78;88.47
67987;BME280;54767;53.800;15.956;2023-08-06T08:43:02;98923.00;;;14.75;88.67
67987;BME280;54767;53.800;15.956;2023-08-06T08:45:35;98931.05;;;14.71;88.98
67987;BME280;54767;53.800;15.956;2023-08-06T08:48:11;98924.98;;;14.68;88.91
67987;BME280;54767;53.800;15.956;2023-08-06T08:50:47;98927.36;;;14.71;88.86
67987;BME280;54767;53.800;15.956;2023-08-06T08:53:17;98934.11;;;14.74;88.97
67987;BME280;54767;53.800;15.956;2023-08-06T08:55:48;98934.73;;;14.77;88.91
67987;BME280;54767;53.800;15.956;2023-08-06T08:58:19;98921.92;;;14.80;88.75
67987;BME280;54767;53.800;15.956;2023-08-06T09:00:48;98917.89;;;14.84;88.67
67987;BME280;54767;53.800;15.956;2023-08-06T09:03:19;98914.81;;;14.87;88.57
67987;BME280;54767;53.800;15.956;2023-08-06T09:05:50;98913.63;;;14.90;88.50
67987;BME280;54767;53.800;15.956;2023-08-06T09:08:24;98907.35;;;14.93;88.40
67987;BME280;54767;53.800;15.956;2023-08-06T09:10:55;98898.55;;;14.93;88.38
67987;BME280;54767;53.800;15.956;2023-08-06T09:13:25;98897.46;;;14.94;88.48
67987;BME280;54767;53.800;15.956;2023-08-06T09:15:53;98891.00;;;14.92;88.53
67987;BME280;54767;53.800;15.956;2023-08-06T09:18:40;98890.27;;;14.92;88.58
67987;BME280;54767;53.800;15.956;2023-08-06T09:21:14;98887.11;;;14.93;88.44
67987;BME280;54767;53.800;15.956;2023-08-06T09:23:44;98877.79;;;14.92;88.60
67987;BME280;54767;53.800;15.956;2023-08-06T09:26:12;98871.64;;;14.91;88.63
67987;BME280;54767;53.800;15.956;2023-08-06T09:28:43;98862.50;;;14.91;88.67
67987;BME280;54767;53.800;15.956;2023-08-06T09:31:12;98859.55;;;14.90;88.84
67987;BME280;54767;53.800;15.956;2023-08-06T09:33:40;98861.77;;;14.87;88.76
67987;BME280;54767;53.800;15.956;2023-08-06T09:36:10;98860.09;;;14.85;88.89
67987;BME280;54767;53.800;15.956;2023-08-06T09:38:40;98851.73;;;14.83;88.80
67987;BME280;54767;53.800;15.956;2023-08-06T09:41:08;98848.63;;;14.81;88.78
67987;BME280;54767;53.800;15.956;2023-08-06T09:43:41;98844.02;;;14.77;88.89
67987;BME280;54767;53.800;15.956;2023-08-06T09:46:11;98843.72;;;14.76;88.90
67987;BME280;54767;53.800;15.956;2023-08-06T09:48:46;98846.41;;;14.74;88.98
67987;BME280;54767;53.800;15.956;2023-08-06T09:51:16;98847.96;;;14.75;89.00
67987;BME280;54767;53.800;15.956;2023-08-06T09:53:46;98847.55;;;14.77;88.66
67987;BME280;54767;53.800;15.956;2023-08-06T09:56:17;98847.89;;;14.82;88.64
67987;BME280;54767;53.800;15.956;2023-08-06T09:58:47;98862.38;;;14.90;88.51
67987;BME280;54767;53.800;15.956;2023-08-06T10:01:18;98863.23;;;15.00;88.46
67987;BME280;54767;53.800;15.956;2023-08-06T10:03:47;98867.05;;;15.06;88.18
67987;BME280;54767;53.800;15.956;2023-08-06T10:06:18;98861.92;;;15.07;87.84
67987;BME280;54767;53.800;15.956;2023-08-06T10:08:48;98861.83;;;15.09;87.82
67987;BME280;54767;53.800;15.956;2023-08-06T10:11:17;98864.09;;;15.10;87.63
67987;BME280;54767;53.800;15.956;2023-08-06T10:13:46;98856.70;;;15.13;87.83
67987;BME280;54767;53.800;15.956;2023-08-06T10:16:14;98846.45;;;15.14;87.54
67987;BME280;54767;53.800;15.956;2023-08-06T10:18:43;98851.09;;;15.13;87.34
67987;BME280;54767;53.800;15.956;2023-08-06T10:21:11;98840.75;;;15.07;87.42
67987;BME280;54767;53.800;15.956;2023-08-06T10:23:41;98824.54;;;14.99;87.69
67987;BME280;54767;53.800;15.956;2023-08-06T10:26:10;98810.70;;;14.92;87.88
67987;BME280;54767;53.800;15.956;2023-08-06T10:28:39;98792.55;;;14.87;88.10
67987;BME280;54767;53.800;15.956;2023-08-06T10:31:08;98780.10;;;14.86;88.07
67987;BME280;54767;53.800;15.956;2023-08-06T10:33:45;98773.13;;;14.84;88.28
67987;BME280;54767;53.800;15.956;2023-08-06T10:36:14;98767.64;;;14.85;88.43
67987;BME280;54767;53.800;15.956;2023-08-06T10:38:48;98759.28;;;14.86;88.62
67987;BME280;54767;53.800;15.956;2023-08-06T10:41:22;98758.27;;;14.86;89.04
67987;BME280;54767;53.800;15.956;2023-08-06T10:43:52;98744.58;;;14.84;89.03
67987;BME280;54767;53.800;15.956;2023-08-06T10:46:27;98745.11;;;14.84;89.13
67987;BME280;54767;53.800;15.956;2023-08-06T10:48:55;98756.08;;;14.83;89.37
67987;BME280;54767;53.800;15.956;2023-08-06T10:51:24;98742.53;;;14.83;89.34
67987;BME280;54767;53.800;15.956;2023-08-06T10:53:53;98725.48;;;14.82;89.40
67987;BME280;54767;53.800;15.956;2023-08-06T10:56:23;98715.55;;;14.83;89.49
67987;BME280;54767;53.800;15.956;2023-08-06T10:58:54;98716.76;;;14.84;89.92
67987;BME280;54767;53.800;15.956;2023-08-06T11:01:24;98716.27;;;14.83;89.78
67987;BME280;54767;53.800;15.956;2023-08-06T11:04:02;98714.08;;;14.80;89.90
67987;BME280;54767;53.800;15.956;2023-08-06T11:06:30;98706.19;;;14.80;89.85
67987;BME280;54767;53.800;15.956;2023-08-06T11:08:59;98705.63;;;14.81;89.94
67987;BME280;54767;53.800;15.956;2023-08-06T11:11:29;98702.59;;;14.82;89.99
67987;BME280;54767;53.800;15.956;2023-08-06T11:13:58;98691.64;;;14.82;90.07
67987;BME280;54767;53.800;15.956;2023-08-06T11:16:26;98687.95;;;14.82;90.42
67987;BME280;54767;53.800;15.956;2023-08-06T11:18:55;98685.66;;;14.82;90.34
67987;BME280;54767;53.800;15.956;2023-08-06T11:21:25;98683.69;;;14.83;90.36
67987;BME280;54767;53.800;15.956;2023-08-06T11:23:53;98687.72;;;14.83;90.39
67987;BME280;54767;53.800;15.956;2023-08-06T11:26:22;98683.22;;;14.82;90.36
67987;BME280;54767;53.800;15.956;2023-08-06T11:28:55;98683.83;;;14.80;90.27
67987;BME280;54767;53.800;15.956;2023-08-06T11:31:24;98677.34;;;14.79;90.26
67987;BME280;54767;53.800;15.956;2023-08-06T11:33:53;98673.54;;;14.77;90.09
67987;BME280;54767;53.800;15.956;2023-08-06T11:36:32;98663.17;;;14.76;90.08
67987;BME280;54767;53.800;15.956;2023-08-06T11:39:03;98650.00;;;14.75;90.16
67987;BME280;54767;53.800;15.956;2023-08-06T11:41:33;98641.02;;;14.76;90.32
67987;BME280;54767;53.800;15.956;2023-08-06T11:44:04;98633.19;;;14.74;90.36
67987;BME280;54767;53.800;15.956;2023-08-06T11:46:51;98623.73;;;14.72;90.36
67987;BME280;54767;53.800;15.956;2023-08-06T11:49:21;98612.48;;;14.71;90.37
67987;BME280;54767;53.800;15.956;2023-08-06T11:51:49;98611.73;;;14.73;90.45
67987;BME280;54767;53.800;15.956;2023-08-06T11:54:30;98611.68;;;14.74;90.38
67987;BME280;54767;53.800;15.956;2023-08-06T11:57:02;98616.38;;;14.75;90.27
67987;BME280;54767;53.800;15.956;2023-08-06T11:59:47;98629.98;;;14.79;90.09
67987;BME280;54767;53.800;15.956;2023-08-06T12:02:15;98668.80;;;14.81;89.82
67987;BME280;54767;53.800;15.956;2023-08-06T12:07:40;98657.74;;;14.80;89.98
67987;BME280;54767;53.800;15.956;2023-08-06T12:10:09;98640.41;;;14.78;89.95
67987;BME280;54767;53.800;15.956;2023-08-06T12:12:38;98626.06;;;14.75;90.10
67987;BME280;54767;53.800;15.956;2023-08-06T12:15:08;98609.23;;;14.74;90.04
67987;BME280;54767;53.800;15.956;2023-08-06T12:17:38;98602.27;;;14.72;90.07
67987;BME280;54767;53.800;15.956;2023-08-06T12:20:07;98594.73;;;14.70;90.31
67987;BME280;54767;53.800;15.956;2023-08-06T12:22:37;98583.95;;;14.67;90.44
67987;BME280;54767;53.800;15.956;2023-08-06T12:25:10;98559.05;;;14.65;90.51
67987;BME280;54767;53.800;15.956;2023-08-06T12:27:42;98545.05;;;14.63;90.68
67987;BME280;54767;53.800;15.956;2023-08-06T12:30:12;98528.62;;;14.60;90.61
67987;BME280;54767;53.800;15.956;2023-08-06T12:32:40;98513.56;;;14.58;90.43
67987;BME280;54767;53.800;15.956;2023-08-06T12:35:09;98523.14;;;14.56;90.53
67987;BME280;54767;53.800;15.956;2023-08-06T12:37:37;98558.41;;;14.55;90.39
67987;BME280;54767;53.800;15.956;2023-08-06T12:40:10;98603.20;;;14.52;90.29
67987;BME280;54767;53.800;15.956;2023-08-06T12:42:58;98642.03;;;14.55;90.22
67987;BME280;54767;53.800;15.956;2023-08-06T12:45:27;98625.29;;;14.60;90.13
67987;BME280;54767;53.800;15.956;2023-08-06T12:47:55;98608.96;;;14.63;90.03
67987;BME280;54767;53.800;15.956;2023-08-06T12:50:24;98586.37;;;14.60;90.12
67987;BME280;54767;53.800;15.956;2023-08-06T12:52:52;98546.04;;;14.56;90.50
67987;BME280;54767;53.800;15.956;2023-08-06T12:55:22;98510.43;;;14.52;90.65
67987;BME280;54767;53.800;15.956;2023-08-06T12:57:50;98500.10;;;14.51;90.76
67987;BME280;54767;53.800;15.956;2023-08-06T13:00:26;98490.11;;;14.50;90.98
67987;BME280;54767;53.800;15.956;2023-08-06T13:02:55;98471.90;;;14.47;91.05
67987;BME280;54767;53.800;15.956;2023-08-06T13:05:24;98467.96;;;14.45;91.30
67987;BME280;54767;53.800;15.956;2023-08-06T13:07:54;98465.77;;;14.42;91.24
67987;BME280;54767;53.800;15.956;2023-08-06T13:10:26;98463.98;;;14.39;91.42